Time;durP1;ratioP1;P1;durP2;ratioP2;P2;SDS_P1;SDS_P2;PMS_P1;PMS_P2;Temp;Humidity;BMP_temperature;BMP_pressure;BME280_temperature;BME280_humidity;BME280_pressure;Samples;Min_cycle;Max_cycle;Signal;HPM_P1;HPM_P2
2023/01/09 00:01:01;;;;;;;33.10;30.90;;;6.80;99.90;;;;;;5011763;28;20081;-76
2023/01/09 00:03:26;;;;;;;10.63;7.53;;;6.90;99.90;;;;;;4978061;28;20081;-76
2023/01/09 00:05:52;;;;;;;8.17;5.83;;;6.80;99.90;;;;;;5012167;28;20115;-76
2023/01/09 00:08:18;;;;;;;38.90;36.63;;;6.70;99.90;;;;;;5012189;28;20053;-76
2023/01/09 00:10:44;;;;;;;21.00;19.37;;;6.70;99.90;;;;;;4994217;28;20049;-77
2023/01/09 00:13:13;;;;;;;18.03;16.73;;;6.60;99.90;;;;;;5011359;28;20049;-77
2023/01/09 00:15:39;;;;;;;7.57;6.73;;;6.50;99.90;;;;;;4994585;28;20137;-77
2023/01/09 00:18:05;;;;;;;12.43;11.43;;;6.50;99.90;;;;;;5012224;28;20050;-77
2023/01/09 00:20:31;;;;;;;10.83;4.13;;;6.50;99.90;;;;;;5011428;28;20046;-77
2023/01/09 00:22:56;;;;;;;7.97;5.20;;;6.40;99.90;;;;;;5011621;28;20454;-78
2023/01/09 00:25:22;;;;;;;8.53;7.10;;;6.40;99.90;;;;;;4993815;28;20144;-77
2023/01/09 00:27:48;;;;;;;10.57;4.17;;;6.30;99.90;;;;;;5011431;28;20108;-77
2023/01/09 00:30:13;;;;;;;6.73;6.13;;;6.30;99.90;;;;;;5011375;28;20457;-78
2023/01/09 00:32:39;;;;;;;6.70;2.47;;;6.30;99.90;;;;;;4994284;28;20416;-77
2023/01/09 00:35:06;;;;;;;6.50;5.37;;;6.30;99.90;;;;;;5010964;28;20046;-77
2023/01/09 00:37:32;;;;;;;4.47;2.73;;;6.30;99.90;;;;;;5010966;28;20050;-76
2023/01/09 00:39:57;;;;;;;3.87;3.10;;;6.30;99.90;;;;;;5011606;28;20050;-77
2023/01/09 00:42:26;;;;;;;4.40;2.33;;;6.30;99.90;;;;;;5011264;28;20100;-77
2023/01/09 00:44:57;;;;;;;3.20;2.37;;;6.30;99.90;;;;;;5011267;28;20042;-77
2023/01/09 00:47:36;;;;;;;4.85;4.38;;;6.20;99.90;;;;;;4994330;28;20042;-76
2023/01/09 00:50:06;;;;;;;2.50;2.30;;;6.30;99.90;;;;;;5010891;28;20059;-78
2023/01/09 00:52:34;;;;;;;4.30;2.57;;;6.30;99.90;;;;;;4994138;28;20049;-77
2023/01/09 00:55:01;;;;;;;4.27;3.07;;;6.30;99.90;;;;;;4993161;28;20480;-78
2023/01/09 00:57:27;;;;;;;3.83;3.53;;;6.30;99.90;;;;;;5011469;28;20495;-76
2023/01/09 00:59:53;;;;;;;5.00;2.03;;;6.30;99.90;;;;;;5010415;28;20104;-77
2023/01/09 01:02:19;;;;;;;2.67;2.30;;;6.30;99.90;;;;;;5011041;28;20042;-76
2023/01/09 01:07:37;;;;;;;2.17;1.60;;;6.50;99.90;;;;;;5011128;28;20563;-76
2023/01/09 01:10:06;;;;;;;4.17;3.87;;;6.30;99.90;;;;;;4994436;28;20492;-76
2023/01/09 01:12:31;;;;;;;2.53;2.10;;;6.30;99.90;;;;;;4992866;28;20054;-75
2023/01/09 01:14:57;;;;;;;3.67;2.67;;;6.30;99.90;;;;;;5010901;28;20104;-76
2023/01/09 01:17:23;;;;;;;3.13;1.93;;;6.20;99.90;;;;;;4993070;28;20351;-77
2023/01/09 01:19:49;;;;;;;3.13;2.83;;;6.20;99.90;;;;;;5010720;28;20115;-76
2023/01/09 01:22:14;;;;;;;3.00;2.30;;;6.20;99.90;;;;;;5010697;28;20050;-77
2023/01/09 01:24:40;;;;;;;2.13;1.90;;;6.20;99.90;;;;;;5010310;28;20042;-76
2023/01/09 01:27:06;;;;;;;2.03;1.93;;;6.20;99.90;;;;;;5010556;28;20156;-76
2023/01/09 01:29:32;;;;;;;2.47;2.20;;;6.20;99.90;;;;;;5010428;28;20036;-76
2023/01/09 01:31:57;;;;;;;3.53;1.93;;;6.20;99.90;;;;;;5010235;28;20057;-76
2023/01/09 01:34:23;;;;;;;3.87;3.47;;;6.10;99.90;;;;;;5010201;28;20140;-75
2023/01/09 01:36:49;;;;;;;8.47;7.97;;;6.10;99.90;;;;;;5009461;28;20042;-76
2023/01/09 01:39:16;;;;;;;3.63;2.70;;;6.10;99.90;;;;;;5010249;28;20046;-76
2023/01/09 01:41:41;;;;;;;5.63;3.93;;;6.20;99.90;;;;;;4992834;28;20527;-76
2023/01/09 01:44:45;;;;;;;2.60;2.27;;;6.20;99.90;;;;;;5010111;28;20042;-76
2023/01/09 01:47:13;;;;;;;5.27;2.50;;;6.10;99.90;;;;;;5009779;28;20057;-76
2023/01/09 01:49:39;;;;;;;5.43;2.73;;;6.10;99.90;;;;;;4993166;28;20058;-76
2023/01/09 01:52:05;;;;;;;5.00;2.90;;;6.10;99.90;;;;;;5009846;28;20180;-77
2023/01/09 01:54:32;;;;;;;6.53;4.33;;;6.10;99.90;;;;;;4992713;28;20057;-76
2023/01/09 01:57:02;;;;;;;7.13;4.43;;;6.10;99.90;;;;;;5010056;28;20168;-76
2023/01/09 01:59:36;;;;;;;6.90;3.77;;;6.20;99.90;;;;;;5009571;28;20046;-76
2023/01/09 02:02:02;;;;;;;6.90;3.77;;;6.20;99.90;;;;;;5010174;28;20050;-77
2023/01/09 02:04:30;;;;;;;3.60;3.23;;;6.10;99.90;;;;;;5009611;28;20117;-76
2023/01/09 02:06:59;;;;;;;10.30;4.47;;;6.10;99.90;;;;;;5010078;28;20491;-76
2023/01/09 02:09:25;;;;;;;8.53;6.20;;;6.10;99.90;;;;;;5009499;28;20053;-78
2023/01/09 02:11:57;;;;;;;10.00;4.80;;;6.10;99.90;;;;;;4991950;28;20518;-76
2023/01/09 02:14:26;;;;;;;8.60;4.17;;;6.10;99.90;;;;;;5009902;28;20042;-77
2023/01/09 02:17:33;;;;;;;10.27;4.43;;;6.00;99.90;;;;;;5010074;28;20179;-76
2023/01/09 02:20:10;;;;;;;8.33;4.10;;;6.00;99.90;;;;;;5001194;28;20088;-79
2023/01/09 02:22:50;;;;;;;8.03;4.53;;;6.00;99.90;;;;;;5009901;28;20057;-76
2023/01/09 02:25:15;;;;;;;8.60;4.03;;;5.90;99.90;;;;;;5012753;28;20049;-76
2023/01/09 02:28:00;;;;;;;8.93;3.93;;;5.90;99.90;;;;;;4998803;28;20083;-76
2023/01/09 02:30:55;;;;;;;13.17;4.37;;;5.90;99.90;;;;;;5011765;28;20124;-75
2023/01/09 02:33:31;;;;;;;13.33;4.47;;;5.80;99.90;;;;;;5016485;28;20085;-75
2023/01/09 02:35:57;;;;;;;7.80;3.77;;;5.70;99.90;;;;;;4998751;28;20518;-76
2023/01/09 02:38:22;;;;;;;8.30;4.23;;;5.70;99.90;;;;;;5014453;28;20050;-76
2023/01/09 02:41:15;;;;;;;6.60;3.93;;;5.60;99.90;;;;;;5016405;28;20054;-76
2023/01/09 02:43:41;;;;;;;8.70;4.40;;;5.60;99.90;;;;;;5015002;28;20396;-77
2023/01/09 02:46:19;;;;;;;10.70;4.60;;;5.60;99.90;;;;;;5016021;28;20046;-76
2023/01/09 02:48:46;;;;;;;10.27;5.03;;;5.50;99.90;;;;;;4998320;28;20387;-76
2023/01/09 02:51:22;;;;;;;10.33;4.40;;;5.50;99.90;;;;;;5014484;28;20069;-76
2023/01/09 02:54:12;;;;;;;10.33;4.57;;;5.60;99.90;;;;;;5006196;28;20050;-76
2023/01/09 02:56:52;;;;;;;10.90;4.03;;;5.60;99.90;;;;;;5010008;28;20180;-76
2023/01/09 02:59:36;;;;;;;14.23;4.40;;;5.60;99.90;;;;;;4996352;28;20046;-76
2023/01/09 03:02:33;;;;;;;15.63;4.57;;;5.60;99.90;;;;;;5008210;28;20590;-76
2023/01/09 03:05:06;;;;;;;11.97;4.17;;;5.60;99.90;;;;;;5015475;28;20081;-76
2023/01/09 03:07:44;;;;;;;12.37;4.20;;;5.50;99.90;;;;;;5014078;28;20045;-76
2023/01/09 03:10:24;;;;;;;7.67;4.30;;;5.40;99.90;;;;;;5009938;28;20053;-77
2023/01/09 03:12:52;;;;;;;8.47;4.73;;;5.40;99.90;;;;;;5016083;28;20056;-77
2023/01/09 03:15:24;;;;;;;12.27;5.23;;;5.30;99.90;;;;;;5014793;28;20085;-76
2023/01/09 03:17:51;;;;;;;9.97;4.60;;;5.30;99.90;;;;;;5014248;28;20120;-76
2023/01/09 03:20:22;;;;;;;10.77;4.33;;;5.30;99.90;;;;;;4998470;28;20160;-78
2023/01/09 03:22:59;;;;;;;8.75;4.72;;;5.10;99.90;;;;;;5015812;28;20107;-76
2023/01/09 03:25:27;;;;;;;15.03;4.70;;;5.20;99.90;;;;;;4997809;28;20328;-76
2023/01/09 03:28:31;;;;;;;13.20;4.70;;;5.20;99.90;;;;;;4997383;28;20381;-76
2023/01/09 03:30:56;;;;;;;9.83;5.10;;;5.10;99.90;;;;;;4997999;28;20058;-77
2023/01/09 03:33:22;;;;;;;9.37;5.13;;;5.00;99.90;;;;;;5015458;28;20476;-76
2023/01/09 03:35:48;;;;;;;11.70;5.03;;;5.10;99.90;;;;;;5014652;28;20038;-76
2023/01/09 03:38:13;;;;;;;9.27;5.33;;;4.90;99.90;;;;;;5011368;28;20046;-75
2023/01/09 03:40:42;;;;;;;11.73;5.00;;;4.90;99.90;;;;;;5010079;28;20104;-76
2023/01/09 03:43:07;;;;;;;11.03;5.20;;;5.00;99.90;;;;;;5012211;28;20333;-75
2023/01/09 03:45:33;;;;;;;10.50;4.83;;;4.90;99.90;;;;;;5012684;28;20053;-75
2023/01/09 03:47:59;;;;;;;15.27;6.30;;;4.80;99.90;;;;;;5011501;28;20496;-76
2023/01/09 03:50:24;;;;;;;9.77;5.87;;;5.00;99.90;;;;;;5012301;28;20496;-76
2023/01/09 03:52:51;;;;;;;12.50;5.90;;;4.90;99.90;;;;;;5010376;28;20064;-76
2023/01/09 03:55:16;;;;;;;15.57;6.30;;;4.80;99.90;;;;;;4992192;28;20141;-77
2023/01/09 03:57:42;;;;;;;14.07;8.70;;;4.90;99.90;;;;;;5002361;28;20543;-76
2023/01/09 04:00:08;;;;;;;14.33;6.57;;;5.00;99.90;;;;;;4988710;28;20507;-77
2023/01/09 04:02:34;;;;;;;13.80;6.30;;;5.00;99.90;;;;;;4993652;28;20052;-76
2023/01/09 04:05:00;;;;;;;15.53;5.83;;;5.10;99.90;;;;;;4994855;28;20132;-76
2023/01/09 04:07:25;;;;;;;11.87;5.47;;;4.90;99.90;;;;;;5012443;28;20089;-76
2023/01/09 04:09:51;;;;;;;9.00;5.67;;;4.90;99.90;;;;;;5011623;28;20438;-76
2023/01/09 04:12:17;;;;;;;9.67;5.60;;;4.90;99.90;;;;;;5012119;28;20092;-77
2023/01/09 04:14:42;;;;;;;12.20;5.97;;;4.80;99.90;;;;;;5011506;28;20058;-76
2023/01/09 04:17:08;;;;;;;9.10;5.83;;;4.90;99.90;;;;;;5012196;28;20132;-75
2023/01/09 04:19:34;;;;;;;12.33;6.10;;;4.80;99.90;;;;;;5011642;28;20085;-78
2023/01/09 04:21:59;;;;;;;13.13;6.17;;;4.80;99.90;;;;;;5012133;28;20133;-75
2023/01/09 04:24:25;;;;;;;17.10;6.73;;;4.70;99.90;;;;;;4993730;28;20085;-78
2023/01/09 04:26:50;;;;;;;12.50;6.20;;;4.60;99.90;;;;;;5011501;28;20057;-76
2023/01/09 04:29:16;;;;;;;15.17;6.20;;;4.70;99.90;;;;;;5011241;28;20587;-76
2023/01/09 04:31:42;;;;;;;20.50;6.80;;;4.70;99.90;;;;;;5011412;28;20177;-76
2023/01/09 04:34:07;;;;;;;18.17;7.20;;;4.70;99.90;;;;;;5011611;28;20038;-76
2023/01/09 04:36:34;;;;;;;17.17;6.70;;;4.60;99.90;;;;;;5011228;28;20045;-76
2023/01/09 04:39:00;;;;;;;18.33;7.67;;;4.60;99.90;;;;;;5011422;28;20054;-76
2023/01/09 04:44:10;;;;;;;15.00;7.83;;;4.60;99.90;;;;;;5011493;28;20049;-76
2023/01/09 04:46:36;;;;;;;15.37;8.23;;;4.50;99.90;;;;;;4994187;28;20136;-76
2023/01/09 04:49:02;;;;;;;20.50;8.47;;;4.50;99.90;;;;;;5009948;28;20089;-76
2023/01/09 04:51:27;;;;;;;14.40;8.07;;;4.50;99.90;;;;;;5011418;28;20404;-77
2023/01/09 04:53:53;;;;;;;19.50;8.50;;;4.40;99.90;;;;;;5010637;28;20061;-76
2023/01/09 04:56:19;;;;;;;18.23;8.33;;;4.40;99.90;;;;;;5011280;28;20038;-76
2023/01/09 04:58:44;;;;;;;16.77;8.83;;;4.40;99.90;;;;;;5011169;28;20049;-75
2023/01/09 05:01:10;;;;;;;26.27;15.87;;;4.40;99.90;;;;;;5011332;28;20111;-76
2023/01/09 05:03:36;;;;;;;27.07;15.80;;;4.30;99.90;;;;;;5010099;28;20054;-76
2023/01/09 05:06:01;;;;;;;28.47;13.53;;;4.30;99.90;;;;;;5010088;28;20050;-78
2023/01/09 05:08:27;;;;;;;34.67;18.03;;;4.20;99.90;;;;;;5010466;28;20049;-76
2023/01/09 05:10:52;;;;;;;30.77;15.37;;;4.30;99.90;;;;;;5010685;28;20473;-76
2023/01/09 05:13:18;;;;;;;36.60;16.47;;;4.10;99.90;;;;;;5011221;28;20534;-76
2023/01/09 05:15:44;;;;;;;56.73;25.70;;;4.10;99.90;;;;;;5010223;28;20038;-75
2023/01/09 05:18:09;;;;;;;39.73;18.50;;;4.20;99.90;;;;;;4998775;28;20045;-77
2023/01/09 05:20:36;;;;;;;30.20;13.60;;;4.10;99.90;;;;;;5005895;28;20057;-76
2023/01/09 05:23:01;;;;;;;24.43;13.03;;;4.10;99.90;;;;;;5008171;28;20049;-76
2023/01/09 05:25:27;;;;;;;47.03;27.43;;;4.10;99.90;;;;;;4989875;28;20408;-76
2023/01/09 05:27:53;;;;;;;24.80;13.93;;;4.20;99.90;;;;;;5009052;28;20057;-76
2023/01/09 05:30:18;;;;;;;27.57;15.77;;;4.20;99.90;;;;;;5001861;28;20054;-76
2023/01/09 05:32:44;;;;;;;46.87;22.80;;;4.20;99.90;;;;;;5009518;28;20451;-76
2023/01/09 05:35:10;;;;;;;64.00;31.33;;;4.30;99.90;;;;;;5008661;28;20081;-76
2023/01/09 05:37:36;;;;;;;44.37;23.43;;;4.40;99.90;;;;;;5010561;28;20132;-77
2023/01/09 05:40:02;;;;;;;72.90;39.53;;;4.40;99.90;;;;;;5010158;28;20495;-76
2023/01/09 05:42:27;;;;;;;63.07;32.43;;;4.50;99.90;;;;;;5010522;28;20149;-76
2023/01/09 05:44:53;;;;;;;52.50;28.73;;;4.60;99.90;;;;;;5009601;28;20518;-76
2023/01/09 05:47:19;;;;;;;57.33;32.33;;;4.60;99.90;;;;;;5010929;28;20045;-76
2023/01/09 05:49:44;;;;;;;42.80;21.40;;;4.60;99.90;;;;;;4992710;28;20049;-76
2023/01/09 05:52:10;;;;;;;33.90;18.63;;;4.50;99.90;;;;;;5009919;28;20100;-76
2023/01/09 05:54:36;;;;;;;63.30;37.47;;;4.70;99.90;;;;;;5009710;28;20597;-75
2023/01/09 05:57:01;;;;;;;44.03;26.83;;;4.70;99.90;;;;;;4992670;28;20326;-76
2023/01/09 05:59:27;;;;;;;47.27;24.77;;;4.60;99.90;;;;;;5009302;28;20045;-75
2023/01/09 06:01:53;;;;;;;36.93;22.63;;;4.60;99.90;;;;;;5010030;28;20557;-76
2023/01/09 06:04:19;;;;;;;42.07;24.20;;;4.70;99.90;;;;;;5009990;28;20056;-76
2023/01/09 06:06:44;;;;;;;34.97;22.33;;;4.70;99.90;;;;;;4992133;28;20049;-76
2023/01/09 06:09:10;;;;;;;38.70;25.60;;;4.70;99.90;;;;;;5009634;28;20119;-76
2023/01/09 06:11:37;;;;;;;35.63;25.40;;;4.80;99.90;;;;;;5009372;28;20053;-76
2023/01/09 06:14:04;;;;;;;40.20;26.57;;;4.80;99.90;;;;;;5010188;28;20053;-76
2023/01/09 06:16:30;;;;;;;44.20;26.67;;;4.90;99.90;;;;;;5009516;28;20045;-76
2023/01/09 06:18:55;;;;;;;38.63;25.80;;;4.90;99.90;;;;;;5009887;28;20399;-76
2023/01/09 06:21:21;;;;;;;41.13;28.03;;;5.00;99.90;;;;;;4976368;28;20510;-76
2023/01/09 06:23:47;;;;;;;43.90;28.53;;;5.00;99.90;;;;;;4991692;28;20486;-76
2023/01/09 06:26:13;;;;;;;42.77;27.20;;;5.00;99.90;;;;;;5009389;28;20181;-76
2023/01/09 06:28:38;;;;;;;44.87;27.97;;;5.00;99.90;;;;;;4992095;28;20084;-77
2023/01/09 06:31:04;;;;;;;38.00;26.73;;;5.10;99.90;;;;;;4992547;28;20053;-78
2023/01/09 06:33:31;;;;;;;37.97;26.57;;;5.30;99.90;;;;;;4994769;28;20046;-77
2023/01/09 06:35:56;;;;;;;41.20;27.13;;;5.20;99.90;;;;;;4999173;28;20476;-79
2023/01/09 06:38:22;;;;;;;39.93;26.53;;;5.20;99.90;;;;;;4990315;28;20053;-77
2023/01/09 06:40:49;;;;;;;36.37;26.37;;;5.20;99.90;;;;;;4991703;28;20165;-76
2023/01/09 06:43:15;;;;;;;58.13;52.00;;;5.20;99.90;;;;;;4992493;28;20408;-76
2023/01/09 06:45:42;;;;;;;44.33;28.83;;;5.20;99.90;;;;;;5009738;28;20050;-77
2023/01/09 06:48:08;;;;;;;46.70;29.90;;;5.20;99.90;;;;;;4975630;28;20042;-77
2023/01/09 06:50:34;;;;;;;40.57;28.70;;;5.20;99.90;;;;;;5009096;28;20065;-77
2023/01/09 06:53:00;;;;;;;44.30;28.63;;;5.20;99.90;;;;;;4991359;28;20062;-76
2023/01/09 06:55:26;;;;;;;46.57;31.90;;;5.20;99.90;;;;;;4991548;28;20050;-77
2023/01/09 06:57:52;;;;;;;38.30;27.37;;;5.20;99.90;;;;;;5009667;28;20046;-76
2023/01/09 07:00:18;;;;;;;69.10;62.37;;;5.20;99.90;;;;;;5009208;28;20096;-77
2023/01/09 07:02:44;;;;;;;43.33;28.30;;;5.20;99.90;;;;;;5009192;28;20053;-78
2023/01/09 07:05:10;;;;;;;44.97;33.80;;;5.20;99.90;;;;;;4991428;28;20050;-76
2023/01/09 07:07:38;;;;;;;39.20;26.57;;;5.20;99.90;;;;;;5009209;28;20422;-76
2023/01/09 07:10:04;;;;;;;38.97;24.67;;;5.20;99.90;;;;;;4991629;28;20385;-77
2023/01/09 07:12:30;;;;;;;38.10;26.53;;;5.20;99.90;;;;;;4995114;28;20085;-77
2023/01/09 07:14:56;;;;;;;39.23;27.70;;;5.20;99.90;;;;;;5012940;28;20046;-76
2023/01/09 07:17:21;;;;;;;34.37;24.10;;;5.20;99.90;;;;;;4995098;28;20533;-76
2023/01/09 07:19:47;;;;;;;40.67;26.90;;;5.20;99.90;;;;;;5013099;28;20049;-76
2023/01/09 07:22:13;;;;;;;32.97;22.40;;;5.20;99.90;;;;;;5012585;28;20133;-77
2023/01/09 07:24:38;;;;;;;37.77;24.33;;;5.30;99.90;;;;;;5012630;28;20038;-76
2023/01/09 07:27:04;;;;;;;35.93;21.67;;;5.20;99.90;;;;;;5012867;28;20049;-77
2023/01/09 07:29:30;;;;;;;30.50;21.23;;;5.30;99.90;;;;;;5012160;28;20041;-76
2023/01/09 07:31:56;;;;;;;32.70;21.77;;;5.20;99.90;;;;;;5012778;28;20302;-77
2023/01/09 07:34:21;;;;;;;31.00;20.70;;;5.30;99.90;;;;;;5011490;28;20054;-77
2023/01/09 07:36:49;;;;;;;30.13;21.20;;;5.20;99.90;;;;;;5010961;28;20061;-77
2023/01/09 07:39:15;;;;;;;34.40;22.13;;;5.20;99.90;;;;;;5011203;28;20037;-77
2023/01/09 07:41:41;;;;;;;36.90;21.33;;;5.20;99.90;;;;;;4993366;28;20042;-76
2023/01/09 07:44:07;;;;;;;33.17;20.43;;;5.20;99.90;;;;;;5012353;28;20052;-77
2023/01/09 07:46:32;;;;;;;35.77;21.33;;;5.30;99.90;;;;;;4977109;28;20045;-77
2023/01/09 07:48:58;;;;;;;32.70;20.43;;;5.20;99.90;;;;;;5011099;28;20046;-76
2023/01/09 07:51:24;;;;;;;32.73;20.23;;;5.20;99.90;;;;;;5010116;28;20347;-77
2023/01/09 07:53:50;;;;;;;29.63;19.80;;;5.10;99.90;;;;;;5011438;28;20053;-78
2023/01/09 07:56:15;;;;;;;30.20;19.10;;;5.10;99.90;;;;;;5011644;28;20049;-77
2023/01/09 07:58:41;;;;;;;26.97;19.50;;;5.10;99.90;;;;;;5011747;28;20096;-76
2023/01/09 08:01:07;;;;;;;30.50;20.73;;;4.90;99.90;;;;;;5011601;28;20518;-77
2023/01/09 08:03:32;;;;;;;27.30;18.70;;;5.10;99.90;;;;;;5011671;28;20057;-76
2023/01/09 08:05:59;;;;;;;29.53;19.37;;;5.00;99.90;;;;;;5011343;28;20129;-76
2023/01/09 08:08:25;;;;;;;34.03;19.13;;;5.00;99.90;;;;;;5000778;28;20044;-77
2023/01/09 08:10:50;;;;;;;32.37;17.93;;;5.00;99.90;;;;;;5006743;28;20415;-78
2023/01/09 08:13:16;;;;;;;26.57;16.93;;;5.00;99.90;;;;;;4942578;28;20758;-80
2023/01/09 08:15:42;;;;;;;28.00;16.03;;;4.90;99.90;;;;;;4990418;28;20050;-76
2023/01/09 08:18:08;;;;;;;28.23;15.43;;;4.90;99.90;;;;;;4990949;28;20038;-77
2023/01/09 08:20:33;;;;;;;21.47;15.77;;;4.80;99.90;;;;;;4990859;28;20397;-80
2023/01/09 08:22:59;;;;;;;26.17;15.00;;;5.00;99.90;;;;;;4988900;28;20080;-78
2023/01/09 08:25:25;;;;;;;24.07;15.23;;;4.90;99.90;;;;;;4990601;28;20050;-75
2023/01/09 08:27:51;;;;;;;27.67;16.07;;;4.90;99.90;;;;;;4973835;28;20133;-77
2023/01/09 08:30:17;;;;;;;23.57;14.27;;;4.90;99.90;;;;;;4991445;28;20049;-77
2023/01/09 08:32:47;;;;;;;27.07;14.77;;;4.90;99.90;;;;;;4991276;28;20136;-77
2023/01/09 08:35:12;;;;;;;24.00;14.50;;;4.90;99.90;;;;;;4990512;28;20080;-77
2023/01/09 08:37:38;;;;;;;24.33;13.97;;;4.90;99.90;;;;;;4989654;28;20176;-78
2023/01/09 08:40:04;;;;;;;24.27;14.30;;;4.90;99.90;;;;;;4990221;28;20053;-76
2023/01/09 08:47:59;;;;;;;21.57;12.53;;;5.00;99.90;;;;;;4991563;28;20467;-78
2023/01/09 08:50:25;;;;;;;21.77;11.73;;;5.00;99.90;;;;;;4990003;28;20795;-76
2023/01/09 08:52:51;;;;;;;24.43;12.47;;;5.00;99.90;;;;;;4989644;28;20149;-80
2023/01/09 08:55:17;;;;;;;18.97;12.30;;;5.00;99.90;;;;;;4990361;28;20083;-78
2023/01/09 08:57:50;;;;;;;22.67;11.90;;;5.00;99.90;;;;;;4972827;28;20100;-77
2023/01/09 09:00:17;;;;;;;23.07;12.90;;;5.10;99.90;;;;;;4972417;28;20140;-78
2023/01/09 09:02:43;;;;;;;18.90;11.93;;;5.00;99.90;;;;;;4989981;28;20049;-77
2023/01/09 09:05:09;;;;;;;20.70;11.77;;;5.20;99.90;;;;;;4990900;28;20527;-79
2023/01/09 09:07:35;;;;;;;20.20;12.03;;;5.10;99.90;;;;;;4990040;28;20128;-78
2023/01/09 09:10:01;;;;;;;20.70;11.30;;;5.10;99.90;;;;;;4969514;28;20531;-78
2023/01/09 09:12:26;;;;;;;17.43;11.63;;;5.10;99.90;;;;;;4991139;28;20045;-78
2023/01/09 09:17:36;;;;;;;16.87;10.93;;;5.30;99.90;;;;;;4973079;28;20566;-76
2023/01/09 09:20:02;;;;;;;16.73;12.03;;;5.20;99.90;;;;;;4990135;28;20065;-77
2023/01/09 09:22:28;;;;;;;21.50;12.63;;;5.20;99.90;;;;;;4991259;28;20046;-76
2023/01/09 09:24:53;;;;;;;18.33;10.67;;;5.30;99.90;;;;;;4990077;28;20065;-78
2023/01/09 09:27:19;;;;;;;17.20;10.37;;;5.40;99.90;;;;;;4989482;28;20057;-76
2023/01/09 09:29:45;;;;;;;16.90;11.03;;;5.30;99.90;;;;;;4989588;28;20165;-78
2023/01/09 09:32:11;;;;;;;18.10;11.10;;;5.40;99.90;;;;;;4990772;28;20161;-80
2023/01/09 09:34:37;;;;;;;21.13;10.17;;;5.30;99.90;;;;;;4988327;28;21417;-77
2023/01/09 09:37:02;;;;;;;18.20;10.30;;;5.40;99.90;;;;;;4971775;28;20050;-76
2023/01/09 09:39:28;;;;;;;21.43;9.73;;;5.40;99.90;;;;;;4988461;28;20140;-79
2023/01/09 09:44:59;;;;;;;20.73;9.43;;;5.50;99.90;;;;;;4988834;28;20362;-77
2023/01/09 09:47:33;;;;;;;18.80;9.23;;;5.50;99.90;;;;;;4990024;28;20468;-79
2023/01/09 09:50:22;;;;;;;17.13;10.17;;;5.60;99.90;;;;;;4990346;28;20111;-78
2023/01/09 09:52:50;;;;;;;18.70;8.93;;;5.60;99.90;;;;;;4986917;28;20062;-80
2023/01/09 09:55:23;;;;;;;14.07;8.50;;;5.60;99.90;;;;;;4988556;28;20050;-77
2023/01/09 09:57:50;;;;;;;16.83;8.67;;;5.60;99.90;;;;;;4989148;28;20054;-76
2023/01/09 10:00:21;;;;;;;15.63;8.93;;;5.70;99.90;;;;;;4989159;28;20049;-77
2023/01/09 10:02:50;;;;;;;;;;;5.70;99.90;;;;;;4989022;28;20144;-79
2023/01/09 10:05:42;;;;;;;14.40;8.17;;;5.70;99.90;;;;;;4987669;28;19925;-76
2023/01/09 10:08:14;;;;;;;;;;;5.90;99.90;;;;;;4971433;28;20391;-76
2023/01/09 10:10:48;;;;;;;15.50;7.93;;;5.80;99.90;;;;;;4988923;28;19975;-77
2023/01/09 10:16:16;;;;;;;15.83;10.17;;;5.90;99.90;;;;;;4989078;28;20589;-76
2023/01/09 10:19:20;;;;;;;15.07;9.43;;;5.80;99.90;;;;;;4970859;28;20081;-76
2023/01/09 10:22:01;;;;;;;19.93;11.33;;;5.90;99.90;;;;;;4989084;28;20597;-77
2023/01/09 10:24:29;;;;;;;13.93;7.53;;;5.90;99.90;;;;;;4971725;28;20156;-78
2023/01/09 10:26:57;;;;;;;11.70;9.60;;;5.90;99.90;;;;;;4988897;28;20296;-80
2023/01/09 10:29:25;;;;;;;14.23;9.20;;;6.00;99.90;;;;;;4988163;28;20120;-76
2023/01/09 10:32:00;;;;;;;14.93;9.13;;;5.90;99.90;;;;;;4987550;28;20054;-78
2023/01/09 10:34:55;;;;;;;15.67;8.80;;;6.00;99.90;;;;;;4955793;28;20515;-76
2023/01/09 10:37:45;;;;;;;15.53;9.40;;;5.90;99.90;;;;;;4989124;28;20049;-77
2023/01/09 10:40:29;;;;;;;19.20;9.67;;;6.00;99.90;;;;;;4978858;28;20056;-76
2023/01/09 10:43:29;;;;;;;15.97;10.47;;;6.00;99.90;;;;;;4989262;28;20150;-77
2023/01/09 10:46:02;;;;;;;11.80;7.93;;;6.10;99.90;;;;;;4989460;28;20061;-80
2023/01/09 10:48:29;;;;;;;16.17;9.30;;;6.20;99.90;;;;;;4992644;28;20046;-78
2023/01/09 10:50:55;;;;;;;14.77;9.93;;;6.10;99.90;;;;;;4992940;28;20057;-76
2023/01/09 10:53:29;;;;;;;16.27;12.50;;;6.10;99.90;;;;;;4991750;28;20127;-77
2023/01/09 10:56:03;;;;;;;17.20;8.40;;;6.10;99.90;;;;;;4993179;28;20612;-80
2023/01/09 10:58:29;;;;;;;11.60;8.03;;;6.10;99.90;;;;;;4991731;28;20500;-78
2023/01/09 11:00:57;;;;;;;13.87;8.33;;;6.20;99.90;;;;;;4992529;28;20104;-76
2023/01/09 11:03:26;;;;;;;17.53;13.60;;;6.20;99.90;;;;;;4957734;28;20507;-78
2023/01/09 11:05:56;;;;;;;13.97;9.20;;;6.20;99.90;;;;;;4991943;28;20520;-77
2023/01/09 11:08:40;;;;;;;12.10;8.60;;;6.20;99.90;;;;;;4976621;28;20452;-77
2023/01/09 11:11:07;;;;;;;21.30;16.23;;;6.20;99.90;;;;;;4973923;28;20198;-78
2023/01/09 11:13:35;;;;;;;18.77;10.53;;;6.20;99.90;;;;;;4992396;28;20062;-78
2023/01/09 11:16:06;;;;;;;15.20;8.73;;;6.20;99.90;;;;;;4992452;28;20057;-76
2023/01/09 11:18:38;;;;;;;15.50;8.13;;;6.20;99.90;;;;;;4992292;28;20050;-76
2023/01/09 11:21:38;;;;;;;12.83;11.20;;;6.20;99.90;;;;;;4992483;28;20407;-76
2023/01/09 11:24:22;;;;;;;12.17;9.40;;;6.20;99.90;;;;;;4974732;28;20693;-78
2023/01/09 11:26:53;;;;;;;13.10;9.30;;;6.20;99.90;;;;;;4975123;28;20101;-78
2023/01/09 11:29:23;;;;;;;10.75;8.23;;;6.30;99.90;;;;;;4992288;28;20111;-78
2023/01/09 11:31:57;;;;;;;13.90;9.37;;;6.20;99.90;;;;;;4992039;28;20058;-79
2023/01/09 11:34:30;;;;;;;13.87;10.27;;;6.30;99.90;;;;;;4989852;28;20131;-76
2023/01/09 11:37:07;;;;;;;15.70;9.37;;;6.30;99.90;;;;;;4990370;28;20408;-77
2023/01/09 11:39:38;;;;;;;12.20;9.43;;;6.30;99.90;;;;;;4991291;28;20050;-77
2023/01/09 11:42:08;;;;;;;12.73;10.27;;;6.30;99.90;;;;;;4991696;28;20050;-75
2023/01/09 11:44:34;;;;;;;13.97;10.67;;;6.30;99.90;;;;;;4991321;28;20050;-76
2023/01/09 11:46:59;;;;;;;19.70;10.87;;;6.30;99.90;;;;;;4991619;28;20111;-76
2023/01/09 11:49:30;;;;;;;16.03;13.13;;;6.30;99.90;;;;;;4989629;28;20050;-77
2023/01/09 11:52:11;;;;;;;13.43;9.10;;;6.30;99.90;;;;;;4989103;28;20081;-76
2023/01/09 11:54:41;;;;;;;11.50;5.90;;;6.40;99.90;;;;;;4989436;28;22042;-76
2023/01/09 11:57:11;;;;;;;14.02;6.70;;;6.30;99.90;;;;;;4988792;28;20084;-76
2023/01/09 11:59:36;;;;;;;22.20;20.23;;;6.30;99.90;;;;;;4990497;28;20527;-77
2023/01/09 12:02:30;;;;;;;12.23;8.27;;;6.30;99.90;;;;;;4990510;28;20049;-77
2023/01/09 12:05:21;;;;;;;16.73;10.83;;;6.30;99.90;;;;;;4990841;28;20096;-76
2023/01/09 12:07:50;;;;;;;14.88;7.85;;;6.30;99.90;;;;;;4989105;28;20111;-79
2023/01/09 12:10:59;;;;;;;14.67;8.23;;;6.30;99.90;;;;;;4989880;28;20168;-80
2023/01/09 12:13:48;;;;;;;12.17;8.50;;;6.30;99.90;;;;;;4992528;28;20483;-76
2023/01/09 12:16:30;;;;;;;12.40;9.83;;;6.30;99.90;;;;;;4989959;28;20112;-76
2023/01/09 12:19:25;;;;;;;13.50;9.73;;;6.40;99.90;;;;;;4958585;28;20053;-76
2023/01/09 12:22:11;;;;;;;15.30;9.30;;;6.40;99.90;;;;;;4991912;28;20069;-76
2023/01/09 12:25:04;;;;;;;14.70;9.47;;;6.40;99.90;;;;;;4992329;28;20059;-76
2023/01/09 12:27:49;;;;;;;11.67;9.30;;;6.40;99.90;;;;;;4991774;28;20057;-77
2023/01/09 12:30:29;;;;;;;17.97;9.43;;;6.50;99.90;;;;;;4931785;28;20447;-77
2023/01/09 12:33:42;;;;;;;15.90;9.47;;;6.40;99.90;;;;;;4989399;28;20540;-76
2023/01/09 12:36:36;;;;;;;15.77;9.50;;;6.40;99.90;;;;;;4891438;29;20087;-78
2023/01/09 12:39:05;;;;;;;14.47;10.53;;;6.40;99.90;;;;;;4888141;29;20168;-77
2023/01/09 12:41:44;;;;;;;15.50;11.27;;;6.40;99.90;;;;;;4958037;28;20057;-76
2023/01/09 12:44:19;;;;;;;18.73;14.23;;;6.40;99.90;;;;;;4991225;28;20495;-76
2023/01/09 12:47:16;;;;;;;17.23;13.00;;;6.40;99.90;;;;;;4973748;28;20294;-76
2023/01/09 12:49:49;;;;;;;18.63;12.70;;;6.40;99.90;;;;;;4971982;28;20066;-78
2023/01/09 12:52:23;;;;;;;20.03;11.03;;;6.40;99.90;;;;;;4990733;28;20140;-76
2023/01/09 12:55:03;;;;;;;15.67;11.37;;;6.40;99.90;;;;;;4991410;28;20137;-77
2023/01/09 12:57:43;;;;;;;12.93;9.47;;;6.40;99.90;;;;;;4974195;28;20054;-79
2023/01/09 13:00:20;;;;;;;17.80;11.20;;;6.40;99.90;;;;;;4973328;28;20049;-76
2023/01/09 13:03:04;;;;;;;17.17;11.10;;;6.40;99.90;;;;;;4990974;28;20875;-76
2023/01/09 13:05:52;;;;;;;18.63;12.77;;;6.40;99.90;;;;;;4991247;28;20124;-77
2023/01/09 13:08:50;;;;;;;17.50;11.23;;;6.40;99.90;;;;;;4972166;28;20092;-76
2023/01/09 13:11:37;;;;;;;24.63;13.47;;;6.50;99.90;;;;;;4969452;28;20503;-77
2023/01/09 13:14:16;;;;;;;22.33;12.70;;;6.50;99.90;;;;;;4991346;28;20053;-80
2023/01/09 13:16:47;;;;;;;17.33;12.47;;;6.50;99.90;;;;;;4991108;28;20046;-76
2023/01/09 13:19:24;;;;;;;18.73;14.50;;;6.50;99.90;;;;;;4973835;28;20056;-77
2023/01/09 13:21:51;;;;;;;23.40;15.33;;;6.50;99.90;;;;;;4972700;28;20096;-79